sensor_id;sensor_type;location;lat;lon;timestamp;pressure;altitude;pressure_sealevel;temperature;humidity
50349;BME280;36250;48.740;22.174;2022-11-20T00:01:34;100053.69;;;1.56;100.00
50349;BME280;36250;48.740;22.174;2022-11-20T00:04:00;100049.69;;;1.62;100.00
50349;BME280;36250;48.740;22.174;2022-11-20T00:06:26;100044.34;;;1.63;100.00
50349;BME280;36250;48.740;22.174;2022-11-20T00:08:55;100028.13;;;1.69;100.00
50349;BME280;36250;48.740;22.174;2022-11-20T00:11:23;100026.47;;;1.68;100.00
50349;BME280;36250;48.740;22.174;2022-11-20T00:13:51;100027.72;;;1.74;100.00
50349;BME280;36250;48.740;22.174;2022-11-20T00:16:20;100040.22;;;1.70;100.00
50349;BME280;36250;48.740;22.174;2022-11-20T00:18:45;100028.28;;;1.68;100.00
50349;BME280;36250;48.740;22.174;2022-11-20T00:21:14;100019.88;;;1.74;100.00
50349;BME280;36250;48.740;22.174;2022-11-20T00:23:41;100024.41;;;1.82;100.00
50349;BME280;36250;48.740;22.174;2022-11-20T00:26:10;100017.28;;;1.84;100.00
50349;BME280;36250;48.740;22.174;2022-11-20T00:28:36;100019.06;;;1.93;100.00
50349;BME280;36250;48.740;22.174;2022-11-20T00:31:06;100021.22;;;1.98;100.00
50349;BME280;36250;48.740;22.174;2022-11-20T00:33:32;100022.47;;;1.94;100.00
50349;BME280;36250;48.740;22.174;2022-11-20T00:36:06;100017.94;;;1.96;100.00
50349;BME280;36250;48.740;22.174;2022-11-20T00:38:32;100013.78;;;2.03;100.00
50349;BME280;36250;48.740;22.174;2022-11-20T00:40:58;100001.56;;;2.03;100.00
50349;BME280;36250;48.740;22.174;2022-11-20T00:43:24;100004.19;;;2.03;100.00
50349;BME280;36250;48.740;22.174;2022-11-20T00:45:50;100001.97;;;1.99;100.00
50349;BME280;36250;48.740;22.174;2022-11-20T00:48:15;100010.38;;;2.02;100.00
50349;BME280;36250;48.740;22.174;2022-11-20T00:50:41;100014.22;;;1.98;100.00
50349;BME280;36250;48.740;22.174;2022-11-20T00:53:06;100025.78;;;1.96;100.00
50349;BME280;36250;48.740;22.174;2022-11-20T00:55:32;100024.97;;;1.95;100.00
50349;BME280;36250;48.740;22.174;2022-11-20T00:57:57;100022.06;;;1.98;100.00
50349;BME280;36250;48.740;22.174;2022-11-20T01:00:22;100017.38;;;2.02;100.00
50349;BME280;36250;48.740;22.174;2022-11-20T01:02:48;100014.63;;;2.03;100.00
50349;BME280;36250;48.740;22.174;2022-11-20T01:05:13;100020.81;;;2.02;100.00
50349;BME280;36250;48.740;22.174;2022-11-20T01:07:38;100017.94;;;2.06;100.00
50349;BME280;36250;48.740;22.174;2022-11-20T01:10:04;100028.94;;;2.09;100.00
50349;BME280;36250;48.740;22.174;2022-11-20T01:12:29;100037.88;;;2.16;100.00
50349;BME280;36250;48.740;22.174;2022-11-20T01:14:55;100033.16;;;2.20;100.00
50349;BME280;36250;48.740;22.174;2022-11-20T01:17:20;100036.34;;;2.24;100.00
50349;BME280;36250;48.740;22.174;2022-11-20T01:19:48;100040.19;;;2.29;100.00
50349;BME280;36250;48.740;22.174;2022-11-20T01:22:14;100043.34;;;2.23;100.00
50349;BME280;36250;48.740;22.174;2022-11-20T01:24:39;100040.47;;;2.26;100.00
50349;BME280;36250;48.740;22.174;2022-11-20T01:27:05;100048.47;;;2.05;100.00
50349;BME280;36250;48.740;22.174;2022-11-20T01:29:30;100049.44;;;1.94;100.00
50349;BME280;36250;48.740;22.174;2022-11-20T01:31:55;100058.09;;;1.95;100.00
50349;BME280;36250;48.740;22.174;2022-11-20T01:34:22;100051.78;;;1.97;100.00
50349;BME280;36250;48.740;22.174;2022-11-20T01:36:48;100043.66;;;2.00;100.00
50349;BME280;36250;48.740;22.174;2022-11-20T01:39:18;100037.19;;;2.05;100.00
50349;BME280;36250;48.740;22.174;2022-11-20T01:41:44;100044.88;;;2.16;100.00
50349;BME280;36250;48.740;22.174;2022-11-20T01:44:57;100035.63;;;2.31;100.00
50349;BME280;36250;48.740;22.174;2022-11-20T01:47:39;100037.41;;;2.41;100.00
50349;BME280;36250;48.740;22.174;2022-11-20T01:50:13;100026.75;;;2.52;100.00
50349;BME280;36250;48.740;22.174;2022-11-20T01:55:19;99987.84;;;2.49;100.00
50349;BME280;36250;48.740;22.174;2022-11-20T01:57:47;99993.63;;;2.53;100.00
50349;BME280;36250;48.740;22.174;2022-11-20T02:00:15;99989.19;;;2.53;100.00
50349;BME280;36250;48.740;22.174;2022-11-20T02:02:45;99977.19;;;2.60;100.00
50349;BME280;36250;48.740;22.174;2022-11-20T02:05:28;99975.78;;;2.66;100.00
50349;BME280;36250;48.740;22.174;2022-11-20T02:07:57;99977.59;;;2.66;100.00
50349;BME280;36250;48.740;22.174;2022-11-20T02:10:24;99986.13;;;2.68;100.00
50349;BME280;36250;48.740;22.174;2022-11-20T02:12:49;99985.84;;;2.71;100.00
50349;BME280;36250;48.740;22.174;2022-11-20T02:15:34;99978.28;;;2.68;100.00
50349;BME280;36250;48.740;22.174;2022-11-20T02:17:59;99983.06;;;2.72;100.00
50349;BME280;36250;48.740;22.174;2022-11-20T02:20:25;99962.53;;;2.78;100.00
50349;BME280;36250;48.740;22.174;2022-11-20T02:22:58;99972.56;;;2.82;100.00
50349;BME280;36250;48.740;22.174;2022-11-20T02:25:26;99970.63;;;2.84;100.00
50349;BME280;36250;48.740;22.174;2022-11-20T02:27:52;99964.97;;;2.89;100.00
50349;BME280;36250;48.740;22.174;2022-11-20T02:30:18;99951.03;;;2.88;100.00
50349;BME280;36250;48.740;22.174;2022-11-20T02:32:44;99943.78;;;2.82;100.00
50349;BME280;36250;48.740;22.174;2022-11-20T02:37:56;99943.69;;;2.74;100.00
50349;BME280;36250;48.740;22.174;2022-11-20T02:40:22;99940.63;;;2.79;100.00
50349;BME280;36250;48.740;22.174;2022-11-20T02:42:51;99925.31;;;2.84;100.00
50349;BME280;36250;48.740;22.174;2022-11-20T02:45:17;99926.38;;;2.91;100.00
50349;BME280;36250;48.740;22.174;2022-11-20T02:47:42;99923.59;;;2.93;100.00
50349;BME280;36250;48.740;22.174;2022-11-20T02:50:08;99922.50;;;2.95;100.00
50349;BME280;36250;48.740;22.174;2022-11-20T02:52:33;99918.91;;;2.96;100.00
50349;BME280;36250;48.740;22.174;2022-11-20T02:54:58;99920.41;;;2.99;100.00
50349;BME280;36250;48.740;22.174;2022-11-20T02:57:24;99914.72;;;3.03;100.00
50349;BME280;36250;48.740;22.174;2022-11-20T02:59:49;99921.75;;;3.03;100.00
50349;BME280;36250;48.740;22.174;2022-11-20T03:02:14;99932.06;;;3.04;100.00
50349;BME280;36250;48.740;22.174;2022-11-20T03:04:40;99934.69;;;3.04;100.00
50349;BME280;36250;48.740;22.174;2022-11-20T03:07:05;99930.88;;;2.99;100.00
50349;BME280;36250;48.740;22.174;2022-11-20T03:09:30;99926.47;;;2.99;100.00
50349;BME280;36250;48.740;22.174;2022-11-20T03:11:56;99921.66;;;2.95;100.00
50349;BME280;36250;48.740;22.174;2022-11-20T03:14:21;99922.25;;;2.88;100.00
50349;BME280;36250;48.740;22.174;2022-11-20T03:16:46;99926.22;;;2.93;100.00
50349;BME280;36250;48.740;22.174;2022-11-20T03:19:12;99919.88;;;2.95;100.00
50349;BME280;36250;48.740;22.174;2022-11-20T03:21:38;99915.63;;;2.94;100.00
50349;BME280;36250;48.740;22.174;2022-11-20T03:24:04;99905.28;;;2.93;100.00
50349;BME280;36250;48.740;22.174;2022-11-20T03:26:29;99899.09;;;2.94;100.00
50349;BME280;36250;48.740;22.174;2022-11-20T03:28:57;99898.72;;;2.88;100.00
50349;BME280;36250;48.740;22.174;2022-11-20T03:31:27;99887.50;;;2.78;100.00
50349;BME280;36250;48.740;22.174;2022-11-20T03:33:53;99877.75;;;2.70;100.00
50349;BME280;36250;48.740;22.174;2022-11-20T03:36:20;99874.91;;;2.64;100.00
50349;BME280;36250;48.740;22.174;2022-11-20T03:38:46;99876.16;;;2.59;100.00
50349;BME280;36250;48.740;22.174;2022-11-20T03:41:14;99861.44;;;2.58;100.00
50349;BME280;36250;48.740;22.174;2022-11-20T03:43:40;99862.13;;;2.60;100.00
50349;BME280;36250;48.740;22.174;2022-11-20T03:46:07;99859.22;;;2.64;100.00
50349;BME280;36250;48.740;22.174;2022-11-20T03:48:32;99856.47;;;2.65;100.00
50349;BME280;36250;48.740;22.174;2022-11-20T03:51:11;99848.91;;;2.62;100.00
50349;BME280;36250;48.740;22.174;2022-11-20T03:53:38;99863.69;;;2.53;100.00
50349;BME280;36250;48.740;22.174;2022-11-20T03:56:04;99864.94;;;2.49;100.00
50349;BME280;36250;48.740;22.174;2022-11-20T03:58:29;99860.34;;;2.33;100.00
50349;BME280;36250;48.740;22.174;2022-11-20T04:00:55;99862.84;;;2.35;100.00
50349;BME280;36250;48.740;22.174;2022-11-20T04:03:20;99855.16;;;2.23;100.00
50349;BME280;36250;48.740;22.174;2022-11-20T04:05:45;99855.06;;;2.15;100.00
50349;BME280;36250;48.740;22.174;2022-11-20T04:08:11;99866.06;;;2.19;100.00
50349;BME280;36250;48.740;22.174;2022-11-20T04:10:36;99863.72;;;2.25;100.00
50349;BME280;36250;48.740;22.174;2022-11-20T04:13:01;99870.28;;;2.29;100.00
50349;BME280;36250;48.740;22.174;2022-11-20T04:15:26;99865.44;;;2.35;100.00
50349;BME280;36250;48.740;22.174;2022-11-20T04:17:53;99870.50;;;2.36;100.00
50349;BME280;36250;48.740;22.174;2022-11-20T04:20:19;99872.63;;;2.33;100.00
50349;BME280;36250;48.740;22.174;2022-11-20T04:22:44;99869.84;;;2.34;100.00
50349;BME280;36250;48.740;22.174;2022-11-20T04:25:10;99858.56;;;2.34;100.00
50349;BME280;36250;48.740;22.174;2022-11-20T04:27:35;99855.28;;;2.31;100.00
50349;BME280;36250;48.740;22.174;2022-11-20T04:30:00;99867.69;;;2.29;100.00
50349;BME280;36250;48.740;22.174;2022-11-20T04:32:25;99870.13;;;2.31;100.00
50349;BME280;36250;48.740;22.174;2022-11-20T04:34:51;99860.94;;;2.27;100.00
50349;BME280;36250;48.740;22.174;2022-11-20T04:37:16;99876.38;;;2.20;100.00
50349;BME280;36250;48.740;22.174;2022-11-20T04:39:42;99870.22;;;2.11;100.00
50349;BME280;36250;48.740;22.174;2022-11-20T04:42:08;99876.81;;;2.15;100.00
50349;BME280;36250;48.740;22.174;2022-11-20T04:44:52;99870.59;;;2.26;100.00
50349;BME280;36250;48.740;22.174;2022-11-20T04:47:18;99868.75;;;2.37;100.00
50349;BME280;36250;48.740;22.174;2022-11-20T04:49:43;99860.59;;;2.40;100.00
50349;BME280;36250;48.740;22.174;2022-11-20T04:52:08;99854.91;;;2.44;100.00
50349;BME280;36250;48.740;22.174;2022-11-20T04:54:33;99852.84;;;2.48;100.00
50349;BME280;36250;48.740;22.174;2022-11-20T04:56:59;99849.25;;;2.49;100.00
50349;BME280;36250;48.740;22.174;2022-11-20T04:59:24;99838.09;;;2.57;100.00
50349;BME280;36250;48.740;22.174;2022-11-20T05:01:49;99843.25;;;2.67;100.00
50349;BME280;36250;48.740;22.174;2022-11-20T05:04:15;99833.97;;;2.72;100.00
50349;BME280;36250;48.740;22.174;2022-11-20T05:06:40;99832.19;;;2.73;100.00
50349;BME280;36250;48.740;22.174;2022-11-20T05:09:05;99833.53;;;2.77;100.00
50349;BME280;36250;48.740;22.174;2022-11-20T05:11:31;99828.59;;;2.74;100.00
50349;BME280;36250;48.740;22.174;2022-11-20T05:13:58;99835.47;;;2.75;100.00
50349;BME280;36250;48.740;22.174;2022-11-20T05:16:25;99823.22;;;2.75;100.00
50349;BME280;36250;48.740;22.174;2022-11-20T05:18:52;99810.50;;;2.81;100.00
50349;BME280;36250;48.740;22.174;2022-11-20T05:21:17;99815.06;;;2.79;100.00
50349;BME280;36250;48.740;22.174;2022-11-20T05:23:43;99806.47;;;2.86;100.00
50349;BME280;36250;48.740;22.174;2022-11-20T05:26:15;99808.28;;;2.86;100.00
50349;BME280;36250;48.740;22.174;2022-11-20T05:28:41;99816.28;;;2.84;100.00
50349;BME280;36250;48.740;22.174;2022-11-20T05:31:08;99797.34;;;2.90;100.00
50349;BME280;36250;48.740;22.174;2022-11-20T05:33:35;99793.94;;;2.90;100.00
50349;BME280;36250;48.740;22.174;2022-11-20T05:36:01;99798.63;;;2.86;100.00
50349;BME280;36250;48.740;22.174;2022-11-20T05:38:26;99813.66;;;2.84;100.00
50349;BME280;36250;48.740;22.174;2022-11-20T05:40:52;99821.19;;;2.87;100.00
50349;BME280;36250;48.740;22.174;2022-11-20T05:43:17;99809.31;;;2.93;100.00
50349;BME280;36250;48.740;22.174;2022-11-20T05:45:42;99809.63;;;2.90;100.00
50349;BME280;36250;48.740;22.174;2022-11-20T05:48:07;99783.31;;;2.92;100.00
50349;BME280;36250;48.740;22.174;2022-11-20T05:50:33;99791.38;;;2.80;100.00
50349;BME280;36250;48.740;22.174;2022-11-20T05:52:59;99836.50;;;2.64;100.00
50349;BME280;36250;48.740;22.174;2022-11-20T05:55:25;99800.63;;;2.56;100.00
50349;BME280;36250;48.740;22.174;2022-11-20T05:57:52;99798.03;;;2.56;100.00
50349;BME280;36250;48.740;22.174;2022-11-20T06:00:18;99806.69;;;2.57;100.00
50349;BME280;36250;48.740;22.174;2022-11-20T06:02:44;99814.91;;;2.44;100.00
50349;BME280;36250;48.740;22.174;2022-11-20T06:05:09;99820.94;;;2.26;100.00
50349;BME280;36250;48.740;22.174;2022-11-20T06:07:34;99817.13;;;2.11;100.00
50349;BME280;36250;48.740;22.174;2022-11-20T06:10:00;99821.84;;;2.07;100.00
50349;BME280;36250;48.740;22.174;2022-11-20T06:12:25;99818.78;;;2.12;100.00
50349;BME280;36250;48.740;22.174;2022-11-20T06:14:50;99827.47;;;2.12;100.00
50349;BME280;36250;48.740;22.174;2022-11-20T06:17:15;99813.66;;;2.20;100.00
50349;BME280;36250;48.740;22.174;2022-11-20T06:19:41;99791.47;;;2.24;100.00
50349;BME280;36250;48.740;22.174;2022-11-20T06:22:06;99795.16;;;2.31;100.00
50349;BME280;36250;48.740;22.174;2022-11-20T06:24:31;99796.34;;;2.37;100.00
50349;BME280;36250;48.740;22.174;2022-11-20T06:26:57;99800.72;;;2.46;100.00
50349;BME280;36250;48.740;22.174;2022-11-20T06:29:22;99805.25;;;2.44;100.00
50349;BME280;36250;48.740;22.174;2022-11-20T06:31:47;99806.50;;;2.40;100.00
50349;BME280;36250;48.740;22.174;2022-11-20T06:34:13;99807.47;;;2.39;100.00
50349;BME280;36250;48.740;22.174;2022-11-20T06:36:38;99807.31;;;2.23;100.00
50349;BME280;36250;48.740;22.174;2022-11-20T06:39:03;99806.69;;;2.11;100.00
50349;BME280;36250;48.740;22.174;2022-11-20T06:41:29;99799.53;;;2.13;100.00
50349;BME280;36250;48.740;22.174;2022-11-20T06:43:54;99787.91;;;2.25;100.00
50349;BME280;36250;48.740;22.174;2022-11-20T06:46:20;99772.44;;;2.32;100.00
50349;BME280;36250;48.740;22.174;2022-11-20T06:48:47;99760.66;;;2.28;100.00
50349;BME280;36250;48.740;22.174;2022-11-20T06:51:12;99775.44;;;2.37;100.00
50349;BME280;36250;48.740;22.174;2022-11-20T06:53:38;99793.16;;;2.43;100.00
50349;BME280;36250;48.740;22.174;2022-11-20T06:56:04;99780.00;;;2.53;100.00
50349;BME280;36250;48.740;22.174;2022-11-20T06:58:31;99773.22;;;2.60;100.00
50349;BME280;36250;48.740;22.174;2022-11-20T07:01:18;99778.00;;;2.65;100.00
50349;BME280;36250;48.740;22.174;2022-11-20T07:03:43;99779.72;;;2.74;100.00
50349;BME280;36250;48.740;22.174;2022-11-20T07:06:09;99778.16;;;2.82;100.00
50349;BME280;36250;48.740;22.174;2022-11-20T07:08:34;99781.81;;;2.89;100.00
50349;BME280;36250;48.740;22.174;2022-11-20T07:11:02;99784.81;;;2.94;100.00
50349;BME280;36250;48.740;22.174;2022-11-20T07:13:28;99791.31;;;2.90;100.00
50349;BME280;36250;48.740;22.174;2022-11-20T07:15:54;99794.91;;;2.71;100.00
50349;BME280;36250;48.740;22.174;2022-11-20T07:18:20;99776.97;;;2.76;100.00
50349;BME280;36250;48.740;22.174;2022-11-20T07:20:45;99785.41;;;2.88;100.00
50349;BME280;36250;48.740;22.174;2022-11-20T07:23:10;99802.66;;;2.81;100.00
50349;BME280;36250;48.740;22.174;2022-11-20T07:25:36;99787.63;;;2.65;100.00
50349;BME280;36250;48.740;22.174;2022-11-20T07:28:01;99777.09;;;2.74;100.00
50349;BME280;36250;48.740;22.174;2022-11-20T07:30:30;99783.31;;;2.92;100.00
50349;BME280;36250;48.740;22.174;2022-11-20T07:32:56;99792.66;;;2.94;100.00
50349;BME280;36250;48.740;22.174;2022-11-20T07:35:23;99791.50;;;2.97;100.00
50349;BME280;36250;48.740;22.174;2022-11-20T07:37:49;99773.47;;;3.12;100.00
50349;BME280;36250;48.740;22.174;2022-11-20T07:40:15;99777.19;;;3.27;100.00
50349;BME280;36250;48.740;22.174;2022-11-20T07:42:53;99775.09;;;3.31;100.00
50349;BME280;36250;48.740;22.174;2022-11-20T07:45:20;99786.63;;;3.46;100.00
50349;BME280;36250;48.740;22.174;2022-11-20T07:47:45;99789.72;;;3.68;100.00
50349;BME280;36250;48.740;22.174;2022-11-20T07:50:11;99787.13;;;3.76;100.00
50349;BME280;36250;48.740;22.174;2022-11-20T07:52:37;99787.28;;;3.75;100.00
50349;BME280;36250;48.740;22.174;2022-11-20T07:55:03;99793.81;;;3.71;100.00
50349;BME280;36250;48.740;22.174;2022-11-20T07:57:28;99780.25;;;3.75;100.00
50349;BME280;36250;48.740;22.174;2022-11-20T07:59:53;99774.44;;;3.90;100.00
50349;BME280;36250;48.740;22.174;2022-11-20T08:02:19;99766.09;;;4.03;100.00
50349;BME280;36250;48.740;22.174;2022-11-20T08:04:44;99759.09;;;4.12;100.00
50349;BME280;36250;48.740;22.174;2022-11-20T08:07:09;99751.25;;;4.20;100.00
50349;BME280;36250;48.740;22.174;2022-11-20T08:09:35;99752.06;;;4.20;100.00
50349;BME280;36250;48.740;22.174;2022-11-20T08:12:00;99763.03;;;4.24;100.00
50349;BME280;36250;48.740;22.174;2022-11-20T08:14:44;99767.50;;;4.24;100.00
50349;BME280;36250;48.740;22.174;2022-11-20T08:17:09;99749.63;;;4.27;100.00
50349;BME280;36250;48.740;22.174;2022-11-20T08:19:35;99752.09;;;4.29;100.00
50349;BME280;36250;48.740;22.174;2022-11-20T08:22:00;99768.81;;;4.28;100.00
50349;BME280;36250;48.740;22.174;2022-11-20T08:24:25;99773.22;;;4.27;100.00
50349;BME280;36250;48.740;22.174;2022-11-20T08:26:51;99765.06;;;4.30;100.00
50349;BME280;36250;48.740;22.174;2022-11-20T08:29:17;99782.44;;;4.40;100.00
50349;BME280;36250;48.740;22.174;2022-11-20T08:31:42;99792.41;;;4.28;100.00
50349;BME280;36250;48.740;22.174;2022-11-20T08:34:08;99793.25;;;4.37;100.00
50349;BME280;36250;48.740;22.174;2022-11-20T08:36:34;99791.81;;;4.59;100.00
50349;BME280;36250;48.740;22.174;2022-11-20T08:39:00;99791.31;;;4.63;100.00
50349;BME280;36250;48.740;22.174;2022-11-20T08:41:25;99782.81;;;4.70;100.00
50349;BME280;36250;48.740;22.174;2022-11-20T08:44:02;99793.31;;;4.86;100.00
50349;BME280;36250;48.740;22.174;2022-11-20T08:46:33;99785.78;;;4.83;100.00
50349;BME280;36250;48.740;22.174;2022-11-20T08:48:59;99785.59;;;4.76;100.00
50349;BME280;36250;48.740;22.174;2022-11-20T08:51:24;99783.78;;;4.52;100.00
50349;BME280;36250;48.740;22.174;2022-11-20T08:53:49;99771.97;;;4.56;100.00
50349;BME280;36250;48.740;22.174;2022-11-20T08:56:15;99763.63;;;4.77;100.00
50349;BME280;36250;48.740;22.174;2022-11-20T08:58:40;99762.97;;;4.84;100.00
50349;BME280;36250;48.740;22.174;2022-11-20T09:01:06;99755.41;;;4.89;100.00
50349;BME280;36250;48.740;22.174;2022-11-20T09:03:31;99751.66;;;4.83;100.00
50349;BME280;36250;48.740;22.174;2022-11-20T09:05:59;99751.66;;;4.91;100.00
50349;BME280;36250;48.740;22.174;2022-11-20T09:08:25;99757.22;;;5.05;100.00
50349;BME280;36250;48.740;22.174;2022-11-20T09:10:54;99762.97;;;5.08;100.00
50349;BME280;36250;48.740;22.174;2022-11-20T09:13:21;99768.25;;;4.92;100.00
50349;BME280;36250;48.740;22.174;2022-11-20T09:15:47;99763.63;;;4.61;100.00
50349;BME280;36250;48.740;22.174;2022-11-20T09:18:17;99777.88;;;4.58;100.00
50349;BME280;36250;48.740;22.174;2022-11-20T09:20:42;99759.84;;;4.47;100.00
50349;BME280;36250;48.740;22.174;2022-11-20T09:23:07;99767.50;;;4.40;100.00
50349;BME280;36250;48.740;22.174;2022-11-20T09:25:33;99774.56;;;4.31;100.00
50349;BME280;36250;48.740;22.174;2022-11-20T09:27:58;99776.84;;;4.34;100.00
50349;BME280;36250;48.740;22.174;2022-11-20T09:30:24;99776.06;;;4.51;100.00
50349;BME280;36250;48.740;22.174;2022-11-20T09:32:50;99779.84;;;4.48;100.00
50349;BME280;36250;48.740;22.174;2022-11-20T09:35:15;99766.69;;;4.31;100.00
50349;BME280;36250;48.740;22.174;2022-11-20T09:37:40;99760.78;;;4.29;100.00
50349;BME280;36250;48.740;22.174;2022-11-20T09:40:06;99753.59;;;4.40;100.00
50349;BME280;36250;48.740;22.174;2022-11-20T09:42:45;99759.69;;;4.57;100.00
50349;BME280;36250;48.740;22.174;2022-11-20T09:48:00;99752.94;;;4.62;100.00
50349;BME280;36250;48.740;22.174;2022-11-20T09:50:42;99759.22;;;4.78;100.00
50349;BME280;36250;48.740;22.174;2022-11-20T09:55:45;99757.22;;;5.13;100.00
50349;BME280;36250;48.740;22.174;2022-11-20T10:01:03;99755.41;;;5.30;100.00
50349;BME280;36250;48.740;22.174;2022-11-20T10:03:50;99770.69;;;5.10;100.00
50349;BME280;36250;48.740;22.174;2022-11-20T10:06:21;99774.94;;;4.95;100.00
50349;BME280;36250;48.740;22.174;2022-11-20T10:09:01;99764.94;;;5.06;100.00
50349;BME280;36250;48.740;22.174;2022-11-20T10:14:04;99761.50;;;4.89;100.00
50349;BME280;36250;48.740;22.174;2022-11-20T10:16:57;99773.78;;;4.81;100.00
50349;BME280;36250;48.740;22.174;2022-11-20T10:20:19;99774.78;;;4.88;100.00
50349;BME280;36250;48.740;22.174;2022-11-20T10:23:07;99780.38;;;4.93;100.00
50349;BME280;36250;48.740;22.174;2022-11-20T10:25:47;99767.91;;;5.03;100.00
50349;BME280;36250;48.740;22.174;2022-11-20T10:31:40;99762.31;;;4.82;100.00
50349;BME280;36250;48.740;22.174;2022-11-20T10:34:19;99753.63;;;4.98;100.00
50349;BME280;36250;48.740;22.174;2022-11-20T10:37:12;99744.75;;;5.07;100.00
50349;BME280;36250;48.740;22.174;2022-11-20T10:39:49;99739.84;;;5.12;100.00
50349;BME280;36250;48.740;22.174;2022-11-20T10:42:24;99755.06;;;5.17;100.00
50349;BME280;36250;48.740;22.174;2022-11-20T10:44:55;99749.16;;;5.23;100.00
50349;BME280;36250;48.740;22.174;2022-11-20T10:47:27;99731.28;;;5.18;100.00
50349;BME280;36250;48.740;22.174;2022-11-20T10:49:55;99731.44;;;5.25;100.00
50349;BME280;36250;48.740;22.174;2022-11-20T10:52:32;99725.84;;;5.36;100.00
50349;BME280;36250;48.740;22.174;2022-11-20T10:55:15;99737.97;;;5.38;100.00
50349;BME280;36250;48.740;22.174;2022-11-20T11:00:17;99728.44;;;5.85;100.00
50349;BME280;36250;48.740;22.174;2022-11-20T11:02:47;99718.56;;;5.95;100.00
50349;BME280;36250;48.740;22.174;2022-11-20T11:05:36;99718.50;;;6.12;100.00
50349;BME280;36250;48.740;22.174;2022-11-20T11:08:03;99707.00;;;6.36;100.00
50349;BME280;36250;48.740;22.174;2022-11-20T11:13:07;99711.13;;;6.77;100.00
50349;BME280;36250;48.740;22.174;2022-11-20T11:15:43;99716.00;;;6.65;100.00
50349;BME280;36250;48.740;22.174;2022-11-20T11:18:32;99699.97;;;6.75;100.00
50349;BME280;36250;48.740;22.174;2022-11-20T11:21:00;99703.31;;;6.84;100.00
50349;BME280;36250;48.740;22.174;2022-11-20T11:23:42;99709.31;;;6.54;100.00
50349;BME280;36250;48.740;22.174;2022-11-20T11:26:20;99714.66;;;6.46;100.00
50349;BME280;36250;48.740;22.174;2022-11-20T11:29:02;99710.03;;;6.71;100.00
50349;BME280;36250;48.740;22.174;2022-11-20T11:31:34;99717.84;;;6.79;100.00
50349;BME280;36250;48.740;22.174;2022-11-20T11:34:06;99718.63;;;6.42;100.00
50349;BME280;36250;48.740;22.174;2022-11-20T11:36:33;99719.91;;;6.22;100.00
50349;BME280;36250;48.740;22.174;2022-11-20T11:39:00;99728.88;;;6.36;100.00
50349;BME280;36250;48.740;22.174;2022-11-20T11:41:30;99725.94;;;6.55;100.00
50349;BME280;36250;48.740;22.174;2022-11-20T11:44:01;99719.34;;;6.59;100.00
50349;BME280;36250;48.740;22.174;2022-11-20T11:46:53;99714.16;;;6.65;100.00
50349;BME280;36250;48.740;22.174;2022-11-20T11:49:20;99712.06;;;6.84;100.00
50349;BME280;36250;48.740;22.174;2022-11-20T11:52:03;99707.97;;;6.96;100.00
50349;BME280;36250;48.740;22.174;2022-11-20T11:54:33;99703.56;;;6.97;100.00
50349;BME280;36250;48.740;22.174;2022-11-20T11:57:04;99703.75;;;6.72;100.00
50349;BME280;36250;48.740;22.174;2022-11-20T12:05:43;99690.56;;;6.34;100.00
50349;BME280;36250;48.740;22.174;2022-11-20T12:08:29;99691.41;;;6.03;100.00
50349;BME280;36250;48.740;22.174;2022-11-20T12:11:05;99696.25;;;5.83;100.00
50349;BME280;36250;48.740;22.174;2022-11-20T12:13:48;99693.13;;;5.87;100.00
50349;BME280;36250;48.740;22.174;2022-11-20T12:16:18;99701.69;;;5.81;100.00
50349;BME280;36250;48.740;22.174;2022-11-20T12:18:46;99709.94;;;5.70;100.00
50349;BME280;36250;48.740;22.174;2022-11-20T12:24:20;99713.22;;;5.80;100.00
50349;BME280;36250;48.740;22.174;2022-11-20T12:27:16;99701.94;;;6.03;100.00
50349;BME280;36250;48.740;22.174;2022-11-20T12:29:40;99680.91;;;6.03;100.00
50349;BME280;36250;48.740;22.174;2022-11-20T12:32:26;99678.94;;;5.97;100.00
50349;BME280;36250;48.740;22.174;2022-11-20T12:37:45;99698.53;;;5.86;100.00
50349;BME280;36250;48.740;22.174;2022-11-20T12:40:27;99686.03;;;5.88;100.00
50349;BME280;36250;48.740;22.174;2022-11-20T12:43:03;99689.75;;;5.70;100.00
50349;BME280;36250;48.740;22.174;2022-11-20T12:46:09;99685.06;;;5.49;100.00
50349;BME280;36250;48.740;22.174;2022-11-20T12:49:01;99683.97;;;5.35;100.00
50349;BME280;36250;48.740;22.174;2022-11-20T12:51:38;99675.44;;;5.33;100.00
50349;BME280;36250;48.740;22.174;2022-11-20T12:57:15;99663.88;;;5.50;100.00
50349;BME280;36250;48.740;22.174;2022-11-20T13:05:55;99658.16;;;6.95;100.00
50349;BME280;36250;48.740;22.174;2022-11-20T13:08:25;99652.03;;;6.41;100.00
50349;BME280;36250;48.740;22.174;2022-11-20T13:14:02;99685.19;;;5.64;100.00
50349;BME280;36250;48.740;22.174;2022-11-20T13:16:41;99685.94;;;5.33;100.00
50349;BME280;36250;48.740;22.174;2022-11-20T13:19:13;99698.31;;;5.07;100.00
50349;BME280;36250;48.740;22.174;2022-11-20T13:21:44;99711.16;;;4.94;100.00
50349;BME280;36250;48.740;22.174;2022-11-20T13:29:26;99724.59;;;4.49;100.00
50349;BME280;36250;48.740;22.174;2022-11-20T13:32:02;99712.28;;;4.42;100.00
50349;BME280;36250;48.740;22.174;2022-11-20T13:34:29;99698.84;;;4.37;100.00
50349;BME280;36250;48.740;22.174;2022-11-20T13:36:57;99703.41;;;4.26;100.00
50349;BME280;36250;48.740;22.174;2022-11-20T13:39:31;99721.28;;;4.23;100.00
50349;BME280;36250;48.740;22.174;2022-11-20T13:41:59;99725.34;;;4.17;100.00
50349;BME280;36250;48.740;22.174;2022-11-20T13:46:50;99727.00;;;4.18;100.00
50349;BME280;36250;48.740;22.174;2022-11-20T13:49:27;99724.88;;;4.30;100.00
50349;BME280;36250;48.740;22.174;2022-11-20T13:52:08;99729.81;;;4.33;100.00
50349;BME280;36250;48.740;22.174;2022-11-20T13:54:58;99723.63;;;4.75;100.00